• Join FlightAware (Why Join?)
  • Login
  • US Flag 
12:42AM EDT


 

Airport Tracker/Info


-or-


 

Live Flight TrackerFlight Track Log ✈ ASQ1349 ✈ 18-Jul-2013 ✈ KATL - KEWR

Flight Track Log - Related Links

Times and Time Zones

All times are in EDT time to prevent confusion due to time zone crossing. See the ASQ1349 flight status page for this flight to view local times or setup timezone preferences in your user account.

Time Position Orientation Groundspeed Altitude Reporting Facility
EDT Latitude Longitude Course Direction KTS MPH feet Rate Location/Type
02:21PM 33.6353 -84.3756 91° East 455 524 3,200  Level Atlanta Center
02:22PM 33.6333 -84.2833 91° East 259 298 5,700 2,640 Climbing Atlanta TRACON
02:23PM 33.6333 -84.2000 90° East 272 313 8,400 2,400 Climbing Atlanta TRACON
02:24PM 33.6356 -84.1136 88° East 290 334 10,700 1,980 Climbing Atlanta Center
02:25PM 33.6858 -84.0339 53° Northeast 276 318 12,500 1,500 Climbing Atlanta Center
02:26PM 33.7503 -83.9514 47° Northeast 320 368 13,700 1,560 Climbing Atlanta Center
02:28PM 33.8878 -83.7686 48° Northeast 344 396 17,300 1,620 Climbing Atlanta Center
02:29PM 33.9544 -83.6756 49° Northeast 344 396 18,700 1,500 Climbing Atlanta Center
02:30PM 34.0125 -83.5803 54° Northeast 353 406 20,300 1,440 Climbing Atlanta Center
02:31PM 34.0769 -83.4794 52° Northeast 363 418 21,600 1,140 Climbing Atlanta Center
02:32PM 34.1411 -83.3761 53° Northeast 370 426 22,600 1,020 Climbing Atlanta Center
02:33PM 34.2072 -83.2728 52° Northeast 387 445 23,700 1,020 Climbing Atlanta Center
02:34PM 34.2733 -83.1639 54° Northeast 387 445 24,700 1,020 Climbing Atlanta Center
02:35PM 34.3392 -83.0553 54° Northeast 393 452 25,800 1,080 Climbing Atlanta Center
02:36PM 34.4072 -82.9461 53° Northeast 393 452 26,900 1,020 Climbing Atlanta Center
02:37PM 34.4750 -82.8394 52° Northeast 398 458 27,900 1,020 Climbing Atlanta Center
02:38PM 34.5428 -82.7250 54° Northeast 404 465 29,000 900 Climbing Atlanta Center
02:39PM 34.6042 -82.6256 53° Northeast 409 471 29,800 1,020 Climbing Atlanta Center
02:40PM 34.6761 -82.5183 51° Northeast 409 471 31,100 1,260 Climbing Atlanta Center
02:41PM 34.7456 -82.4058 53° Northeast 409 471 32,400 900 Climbing Atlanta Center
02:42PM 34.8128 -82.2906 55° Northeast 414 476 33,000 300 Climbing Atlanta Center
02:43PM 34.8881 -82.1675 53° Northeast 429 494 33,000  Level Atlanta Center
02:44PM 34.9614 -82.0492 53° Northeast 439 505 33,000  Level Atlanta Center
02:45PM 35.0325 -81.9283 54° Northeast 439 505 33,000 180 Level Atlanta Center
02:46PM 35.1011 -81.8022 56° Northeast 445 512 33,400 780 Climbing Atlanta Center
02:47PM 35.1636 -81.6811 58° Northeast 435 501 34,600 780 Climbing Atlanta Center
02:48PM 35.2319 -81.5544 57° Northeast 435 501 35,000 180 Climbing Atlanta Center
02:49PM 35.3022 -81.4200 57° Northeast 430 495 35,000  Level Atlanta Center
02:50PM 35.3642 -81.2958 59° Northeast 430 495 35,000  Level Atlanta Center
02:51PM 35.4281 -81.1689 58° Northeast 435 501 35,000  Level Atlanta Center
02:52PM 35.4939 -81.0442 57° Northeast 435 501 35,000  Level Atlanta Center
02:53PM 35.5539 -80.9322 57° Northeast 435 501 35,000  Level Atlanta Center
02:54PM 35.6233 -80.7992 57° Northeast 429 494 35,000  Level Atlanta Center
02:55PM 35.6867 -80.6739 58° Northeast 423 487 35,000  Level Atlanta Center
02:56PM 35.7481 -80.5564 57° Northeast 413 475 35,000  Level Atlanta Center
02:57PM 35.8133 -80.4281 58° Northeast 424 488 35,000  Level Atlanta Center
02:58PM 35.8786 -80.3072 56° Northeast 424 488 35,000  Level Atlanta Center
02:59PM 35.9372 -80.1867 59° Northeast 415 478 35,000  Level Atlanta Center
03:01PM 36.0597 -79.9600 56° Northeast 431 496 35,000  Level Washington Center
03:02PM 36.1267 -79.8403 55° Northeast 426 490 35,000  Level Washington Center
03:03PM 36.2022 -79.7028 56° Northeast 426 490 35,000  Level Washington Center
03:04PM 36.2711 -79.5803 55° Northeast 433 498 35,000  Level Washington Center
03:05PM 36.3375 -79.4622 55° Northeast 428 493 35,000  Level Washington Center
03:06PM 36.4042 -79.3367 57° Northeast 428 493 35,000  Level Washington Center
03:07PM 36.4747 -79.2161 54° Northeast 433 498 35,000  Level Washington Center
03:08PM 36.5383 -79.1078 54° Northeast 433 498 35,000  Level Washington Center
03:09PM 36.6067 -78.9842 55° Northeast 433 498 35,000  Level Washington Center
03:10PM 36.6750 -78.8525 57° Northeast 438 504 35,000  Level Washington Center
03:11PM 36.7494 -78.7181 55° Northeast 438 504 35,000  Level Washington Center
03:12PM 36.8175 -78.5911 56° Northeast 438 504 35,000  Level Washington Center
03:13PM 36.8719 -78.4947 55° Northeast 433 498 35,000  Level Washington Center
03:14PM 36.9506 -78.3494 56° Northeast 433 498 35,000  Level Washington Center
03:15PM 37.0181 -78.2294 55° Northeast 433 498 35,000  Level Washington Center
03:16PM 37.1158 -78.1444 35° Northeast 416 479 35,000  Level Washington Center
03:17PM 37.2194 -78.0669 31° Northeast 421 484 35,000  Level Washington Center
03:18PM 37.3214 -77.9892 31° Northeast 426 490 35,000  Level Washington Center
03:19PM 37.4250 -77.9114 31° Northeast 426 490 35,000  Level Washington Center
03:20PM 37.5247 -77.8308 33° Northeast 432 497 35,000  Level Washington Center
03:21PM 37.6242 -77.7419 35° Northeast 437 503 35,000  Level Washington Center
03:22PM 37.7239 -77.6528 35° Northeast 437 503 35,000  Level Washington Center
03:23PM 37.8233 -77.5633 35° Northeast 437 503 35,000  Level Washington Center
03:24PM 37.9208 -77.4714 37° Northeast 432 497 35,000  Level Washington Center
03:25PM 38.0181 -77.3814 36° Northeast 432 497 35,000  Level Washington Center
03:26PM 38.1236 -77.2864 35° Northeast 427 491 35,000  Level Washington Center
03:27PM 38.2231 -77.1933 36° Northeast 433 498 35,000  Level Washington Center
03:28PM 38.3200 -77.1028 36° Northeast 433 498 35,000  Level Washington Center
03:29PM 38.4192 -77.0119 36° Northeast 433 498 35,000  Level Washington Center
03:30PM 38.5183 -76.9211 36° Northeast 433 498 35,000  Level Washington Center
03:31PM 38.6153 -76.8272 37° Northeast 433 498 35,000  Level Washington Center
03:32PM 38.7142 -76.7303 37° Northeast 433 498 35,000  Level Washington Center
03:33PM 38.8067 -76.6278 41° Northeast 433 498 35,000 -300 Level Washington Center
03:34PM 38.8994 -76.5253 41° Northeast 433 498 34,400 -1,020 Descending Washington Center
03:35PM 38.9875 -76.4194 43° Northeast 433 498 33,000 -1,740 Descending Washington Center
03:36PM 39.0758 -76.3161 42° Northeast 433 498 30,900 -2,580 Descending Washington Center
03:37PM 39.1703 -76.2047 42° Northeast 433 498 27,800 -2,100 Descending Washington Center
03:38PM 39.2542 -76.1061 42° Northeast 443 510 26,900 -900 Descending Washington Center
03:39PM 39.3503 -75.9969 41° Northeast 443 510 26,100 -1,080 Descending Washington Center
03:40PM 39.4444 -75.8872 42° Northeast 448 516 24,800 -1,380 Descending Washington Center
03:41PM 39.5383 -75.7744 43° Northeast 448 516 23,400 -1,620 Descending Washington Center
03:42PM 39.6322 -75.6669 41° Northeast 448 516 21,600 -1,620 Descending Washington Center
03:43PM 39.7219 -75.5592 43° Northeast 443 510 20,200 -1,680 Descending Washington Center
03:44PM 39.8053 -75.4564 43° Northeast 433 498 18,300 -1,920 Descending Washington Center
03:45PM 39.8883 -75.3561 43° Northeast 416 479 16,400 -2,400 Descending Washington Center
03:46PM 39.9694 -75.2586 43° Northeast 402 463 13,600 -2,520 Descending Washington Center
03:47PM 40.0461 -75.1661 43° Northeast 383 441 11,400 -1,320 Descending Washington Center
03:48PM 40.1250 -75.0922 36° Northeast 362 417 11,000 -480 Descending Washington Center
03:49PM 40.1667 -75.0333 47° Northeast 326 375 10,700 -1,800 Descending New York TRACON
03:50PM 40.2167 -74.9667 46° Northeast 290 334 8,300 -1,380 Descending New York TRACON
03:51PM 40.2667 -74.8833 52° Northeast 272 313 8,100 -240 Descending New York TRACON
03:52PM 40.3167 -74.8167 45° Northeast 280 322 7,900 -660 Descending New York TRACON
03:53PM 40.3667 -74.7333 52° Northeast 277 319 6,800 -960 Descending New York TRACON
03:54PM 40.4167 -74.6667 45° Northeast 275 316 6,000 -420 Descending New York TRACON
03:55PM 40.4500 -74.5667 66° East 283 326 6,000  Level New York TRACON
03:56PM 40.5167 -74.5333 21° North 274 315 6,100  Climbing New York TRACON
03:57PM 40.5833 -74.5500 349° North 267 307 6,100 -60 Level New York TRACON
03:58PM 40.6667 -74.5667 351° North 272 313 6,000 -120 Descending New York TRACON
03:59PM 40.7333 -74.5833 349° North 272 313 5,900 -480 Descending New York TRACON
04:00PM 40.8000 -74.5500 21° North 264 304 5,100 -420 Descending New York TRACON
04:01PM 40.8667 -74.5000 30° Northeast 274 315 5,100 -60 Level New York TRACON
04:02PM 40.9000 -74.4167 62° Northeast 277 319 5,000  Descending New York TRACON
04:03PM 40.9500 -74.3333 52° Northeast 281 323 5,100 -480 Climbing New York TRACON
04:04PM 40.9500 -74.2333 90° East 261 300 4,100 -600 Descending New York TRACON
04:05PM 40.9167 -74.1500 118° Southeast 240 276 4,000 -300 Descending New York TRACON
04:06PM 40.8833 -74.0833 123° Southeast 224 258 3,500 -600 Descending New York TRACON
04:07PM 40.8333 -74.0833 180° South 201 231 2,900 -780 Descending New York TRACON
04:08PM 40.7833 -74.1000 194° South 191 220 2,000 -840 Descending New York TRACON
04:09PM 40.7500 -74.1333 217° Southwest 144 166 1,300 -900 Descending New York TRACON
04:10PM 40.7000 -74.1500 194° South 137 158 300 -1,020 Descending New York TRACON
04:12PM 40.6833 -74.1667 183° South  Level FlightAware Approximate
04:19PM 40.6925 -74.1687 183° South  Level Estimated